Time;durP1;ratioP1;P1;durP2;ratioP2;P2;SDS_P1;SDS_P2;PMS_P1;PMS_P2;Temp;Humidity;BMP_temperature;BMP_pressure;BME280_temperature;BME280_humidity;BME280_pressure;Samples;Min_cycle;Max_cycle;Signal;HPM_P1;HPM_P2
2022/07/15 00:03:16;;;;;;;3.85;1.23;;;16.00;99.90;;;;;;12466148;28;20044;-85
2022/07/15 00:09:18;;;;;;;3.50;1.13;;;15.90;99.90;;;;;;12472518;28;20436;-85
2022/07/15 00:15:22;;;;;;;5.40;1.55;;;15.70;99.90;;;;;;12463481;28;20514;-85
2022/07/15 00:21:24;;;;;;;4.03;1.25;;;15.60;99.90;;;;;;12452584;28;20502;-85
2022/07/15 00:27:26;;;;;;;5.88;1.45;;;15.40;99.90;;;;;;12463448;28;20079;-85
2022/07/15 00:33:28;;;;;;;3.97;1.70;;;15.30;99.90;;;;;;12463422;28;20550;-85
2022/07/15 00:39:30;;;;;;;4.75;1.45;;;15.00;99.90;;;;;;12464555;28;20129;-85
2022/07/15 00:45:32;;;;;;;8.00;1.60;;;14.80;99.90;;;;;;12452498;28;20187;-85
2022/07/15 00:51:36;;;;;;;6.20;2.28;;;15.00;99.90;;;;;;12459650;28;20524;-85
2022/07/15 00:57:43;;;;;;;9.93;1.95;;;15.10;99.90;;;;;;12457331;28;20045;-85
2022/07/15 01:03:50;;;;;;;8.95;2.00;;;15.00;99.90;;;;;;12457626;28;20037;-84
2022/07/15 01:09:52;;;;;;;5.57;1.50;;;15.00;99.90;;;;;;12472144;28;20045;-85
2022/07/15 01:15:54;;;;;;;4.72;1.30;;;15.00;99.90;;;;;;12466819;28;20045;-86
2022/07/15 01:21:56;;;;;;;5.72;1.55;;;15.00;99.90;;;;;;12446926;28;20053;-86
2022/07/15 01:27:58;;;;;;;6.03;2.13;;;14.90;99.90;;;;;;12474045;28;20125;-85
2022/07/15 01:33:59;;;;;;;6.22;1.40;;;15.20;99.90;;;;;;12468897;28;20056;-86
2022/07/15 01:40:01;;;;;;;5.57;1.85;;;15.30;99.90;;;;;;12469019;28;20231;-85
2022/07/15 01:46:03;;;;;;;8.35;1.92;;;15.40;99.90;;;;;;12458319;28;20455;-85
2022/07/15 01:52:08;;;;;;;5.00;1.45;;;15.30;99.90;;;;;;12461995;28;20046;-85
2022/07/15 01:58:10;;;;;;;4.63;1.30;;;15.20;99.90;;;;;;12473074;28;20057;-85
2022/07/15 02:04:15;;;;;;;6.93;1.85;;;15.20;99.90;;;;;;12459490;28;20167;-85
2022/07/15 02:10:17;;;;;;;5.95;2.08;;;15.00;99.90;;;;;;12464524;28;20143;-85
2022/07/15 02:16:18;;;;;;;6.80;2.10;;;14.90;99.90;;;;;;12459045;28;20061;-85
2022/07/15 02:22:20;;;;;;;8.15;2.00;;;14.90;99.90;;;;;;12451499;28;20033;-85
2022/07/15 02:28:23;;;;;;;8.18;2.00;;;14.90;99.90;;;;;;12467898;28;20400;-84
2022/07/15 02:34:25;;;;;;;5.75;1.92;;;14.90;99.90;;;;;;12451191;28;20045;-85
2022/07/15 02:40:27;;;;;;;7.45;2.00;;;14.80;99.90;;;;;;12468283;28;20049;-85
2022/07/15 02:46:29;;;;;;;6.85;2.00;;;14.70;99.90;;;;;;12459297;28;20094;-85
2022/07/15 02:52:31;;;;;;;5.72;1.70;;;14.60;99.90;;;;;;12460061;28;20095;-85
2022/07/15 02:58:33;;;;;;;5.05;2.20;;;14.60;99.90;;;;;;12470292;28;20049;-85
2022/07/15 03:04:35;;;;;;;6.85;2.10;;;14.50;99.90;;;;;;12456702;28;20049;-85
2022/07/15 03:10:37;;;;;;;4.93;2.00;;;14.50;99.90;;;;;;12461800;28;20095;-85
2022/07/15 03:16:39;;;;;;;9.07;2.53;;;14.20;99.90;;;;;;12487150;28;20054;-85
2022/07/15 03:22:41;;;;;;;7.72;2.30;;;14.20;99.90;;;;;;12442723;28;20159;-85
2022/07/15 03:28:44;;;;;;;5.50;1.77;;;14.10;99.90;;;;;;12450467;28;20061;-85
2022/07/15 03:34:46;;;;;;;5.97;2.05;;;14.00;99.90;;;;;;12463412;28;20057;-85
2022/07/15 03:40:48;;;;;;;11.23;2.17;;;14.00;99.90;;;;;;12455297;28;20041;-85
2022/07/15 03:46:50;;;;;;;9.43;2.40;;;13.90;99.90;;;;;;12450391;28;20084;-85
2022/07/15 03:52:52;;;;;;;9.30;1.90;;;13.90;99.90;;;;;;12469284;28;20129;-85
2022/07/15 03:58:54;;;;;;;12.20;2.15;;;13.90;99.90;;;;;;12453203;28;20690;-84
2022/07/15 04:04:56;;;;;;;5.85;1.60;;;13.90;99.90;;;;;;12461258;28;20200;-85
2022/07/15 04:10:58;;;;;;;6.32;2.17;;;13.90;99.90;;;;;;12454965;28;20501;-85
2022/07/15 04:16:59;;;;;;;6.90;1.92;;;13.90;99.90;;;;;;12477361;28;20089;-84
2022/07/15 04:23:01;;;;;;;6.38;1.73;;;13.80;99.90;;;;;;12469957;28;20065;-85
2022/07/15 04:29:04;;;;;;;8.55;2.63;;;13.80;99.90;;;;;;12473949;28;20065;-85
2022/07/15 04:35:06;;;;;;;11.73;2.20;;;13.90;99.90;;;;;;12475053;28;20140;-85
2022/07/15 04:41:08;;;;;;;6.70;2.15;;;13.80;99.90;;;;;;12455756;28;20180;-85
2022/07/15 04:47:09;;;;;;;14.77;2.92;;;13.70;99.90;;;;;;12475940;28;20053;-87
2022/07/15 04:53:12;;;;;;;8.82;2.00;;;13.60;99.90;;;;;;12486922;28;20049;-86
2022/07/15 04:59:13;;;;;;;13.07;2.90;;;13.70;99.90;;;;;;12468889;28;20049;-85
2022/07/15 05:05:15;;;;;;;8.85;2.38;;;13.60;99.90;;;;;;12475411;28;20049;-86
2022/07/15 05:11:17;;;;;;;8.57;2.75;;;13.40;99.90;;;;;;12469238;28;20042;-86
2022/07/15 05:17:19;;;;;;;7.30;2.35;;;13.60;99.90;;;;;;12483228;28;20608;-85
2022/07/15 05:23:20;;;;;;;12.15;2.60;;;13.40;99.90;;;;;;12464093;28;20081;-85
2022/07/15 05:29:22;;;;;;;12.07;3.13;;;13.50;99.90;;;;;;12468263;28;20106;-86
2022/07/15 05:35:24;;;;;;;9.82;2.70;;;13.40;99.90;;;;;;12455707;28;20084;-85
2022/07/15 05:41:26;;;;;;;11.95;2.80;;;13.60;99.90;;;;;;12471593;28;20493;-84
2022/07/15 05:47:28;;;;;;;7.35;2.40;;;13.70;99.90;;;;;;12469166;28;20538;-86
2022/07/15 05:53:31;;;;;;;14.80;2.60;;;13.80;99.90;;;;;;12470797;28;20498;-86
2022/07/15 05:59:32;;;;;;;8.77;2.60;;;13.90;99.90;;;;;;12462365;28;20046;-85
2022/07/15 06:05:34;;;;;;;8.40;2.35;;;13.90;99.90;;;;;;12452889;28;20046;-86
2022/07/15 06:11:36;;;;;;;10.68;2.28;;;14.00;99.90;;;;;;12459706;28;20472;-85
2022/07/15 06:17:38;;;;;;;8.32;2.38;;;14.10;99.90;;;;;;12466980;28;20470;-85
2022/07/15 06:23:40;;;;;;;15.95;2.10;;;14.10;99.90;;;;;;12456486;28;20788;-86
2022/07/15 06:29:41;;;;;;;6.82;1.80;;;14.10;99.90;;;;;;12457473;28;20071;-86
2022/07/15 06:35:43;;;;;;;7.95;1.80;;;14.40;99.90;;;;;;12482163;28;20099;-85
2022/07/15 06:41:46;;;;;;;6.40;1.55;;;14.40;99.90;;;;;;12466880;28;20049;-86
2022/07/15 06:47:48;;;;;;;5.47;1.40;;;14.40;99.90;;;;;;12467721;28;20186;-84
2022/07/15 06:53:50;;;;;;;6.07;1.40;;;14.60;99.90;;;;;;12466877;28;20133;-83
2022/07/15 06:59:52;;;;;;;5.88;1.23;;;14.80;99.90;;;;;;12479717;28;20079;-86
2022/07/15 07:05:54;;;;;;;5.15;1.40;;;14.60;99.90;;;;;;12454763;28;20044;-85
2022/07/15 07:11:57;;;;;;;5.65;1.38;;;14.80;99.90;;;;;;12444613;28;20046;-86
2022/07/15 07:17:59;;;;;;;7.78;1.25;;;15.00;99.90;;;;;;12456098;28;20478;-85
2022/07/15 07:24:01;;;;;;;5.70;0.90;;;15.10;99.90;;;;;;12446685;28;20133;-85
2022/07/15 07:30:04;;;;;;;3.90;0.73;;;15.30;99.90;;;;;;12454782;28;20152;-85
2022/07/15 07:36:07;;;;;;;3.60;1.00;;;15.40;99.90;;;;;;12461038;28;20092;-85
2022/07/15 07:42:09;;;;;;;8.10;1.08;;;15.20;99.90;;;;;;12457104;28;20053;-87
2022/07/15 07:48:11;;;;;;;5.07;0.80;;;15.50;99.90;;;;;;12442937;28;20125;-85
2022/07/15 07:54:13;;;;;;;4.53;0.63;;;15.60;99.90;;;;;;12465207;28;20186;-86
2022/07/15 08:00:16;;;;;;;9.13;1.08;;;15.60;99.90;;;;;;12444563;28;20079;-86
2022/07/15 08:06:18;;;;;;;6.43;0.80;;;15.80;99.90;;;;;;12465788;28;20132;-86
2022/07/15 08:12:20;;;;;;;3.05;0.80;;;16.00;99.90;;;;;;12448202;28;20094;-84
2022/07/15 08:18:22;;;;;;;8.05;0.98;;;16.30;99.90;;;;;;12453078;28;20187;-86
2022/07/15 08:24:24;;;;;;;7.55;1.05;;;16.30;99.90;;;;;;12452955;28;20037;-85
2022/07/15 08:30:27;;;;;;;2.38;0.50;;;16.40;99.90;;;;;;12450404;28;20519;-86
2022/07/15 08:36:30;;;;;;;3.27;0.90;;;16.50;99.90;;;;;;12466802;28;20402;-85
2022/07/15 08:42:31;;;;;;;1.25;0.50;;;16.70;99.90;;;;;;12448155;28;20103;-87
2022/07/15 08:48:37;;;;;;;3.33;0.50;;;16.60;99.90;;;;;;12460630;28;20140;-86
2022/07/15 08:54:39;;;;;;;2.53;0.57;;;16.50;99.90;;;;;;12473582;28;20108;-86
2022/07/15 09:00:41;;;;;;;4.28;0.80;;;16.50;99.90;;;;;;12472486;28;20132;-86
2022/07/15 09:06:46;;;;;;;2.70;0.57;;;16.60;99.90;;;;;;12458296;28;20090;-85
2022/07/15 09:12:52;;;;;;;5.13;0.80;;;16.70;99.90;;;;;;12476018;28;20481;-86
2022/07/15 09:18:53;;;;;;;3.88;0.80;;;16.90;99.90;;;;;;12459487;28;20545;-86
2022/07/15 09:25:08;;;;;;;2.25;0.90;;;16.70;99.90;;;;;;12477958;28;20401;-86
2022/07/15 09:37:30;;;;;;;5.68;0.70;;;16.70;99.90;;;;;;12469638;28;20061;-86
2022/07/15 09:43:46;;;;;;;4.25;0.60;;;16.90;99.90;;;;;;12486706;28;20097;-86
2022/07/15 09:49:48;;;;;;;2.42;0.80;;;17.00;99.90;;;;;;12465522;28;20576;-86
2022/07/15 09:55:51;;;;;;;3.47;0.95;;;17.40;99.90;;;;;;12463918;28;20612;-85
2022/07/15 10:01:53;;;;;;;4.20;0.77;;;17.50;99.90;;;;;;12454147;28;20087;-85
2022/07/15 10:07:56;;;;;;;2.45;0.65;;;17.30;99.90;;;;;;12466012;28;20544;-87
2022/07/15 10:14:31;;;;;;;3.72;0.50;;;17.30;99.90;;;;;;12451107;28;20045;-87
2022/07/15 10:20:58;;;;;;;4.50;0.63;;;17.20;99.90;;;;;;12463928;28;20065;-87
2022/07/15 10:27:26;;;;;;;2.10;0.52;;;17.10;99.90;;;;;;12477130;28;20185;-87
2022/07/15 10:33:27;;;;;;;3.80;0.47;;;17.00;99.90;;;;;;12476019;28;20128;-86
2022/07/15 10:39:57;;;;;;;2.38;0.70;;;16.90;99.90;;;;;;12481358;28;20037;-87
2022/07/15 10:46:12;;;;;;;2.90;0.50;;;17.10;99.90;;;;;;12452565;28;20053;-87
2022/07/15 10:52:15;;;;;;;1.38;0.50;;;17.80;99.90;;;;;;12458704;28;20177;-87
2022/07/15 10:58:18;;;;;;;6.67;1.10;;;17.90;99.90;;;;;;12492270;28;20054;-87
2022/07/15 11:04:25;;;;;;;2.90;0.60;;;17.80;99.90;;;;;;12478356;28;20498;-87
2022/07/15 11:10:27;;;;;;;5.68;0.68;;;17.60;99.90;;;;;;12464363;28;20045;-85
2022/07/15 11:16:29;;;;;;;3.92;0.60;;;17.30;99.90;;;;;;12470874;28;20470;-87
2022/07/15 11:22:31;;;;;;;3.20;0.50;;;17.30;99.90;;;;;;12464743;28;20118;-85
2022/07/15 11:28:36;;;;;;;1.83;0.45;;;17.30;99.90;;;;;;12482909;28;20134;-87
2022/07/15 11:34:44;;;;;;;2.97;0.68;;;17.40;99.90;;;;;;12466476;28;20045;-86
2022/07/15 11:47:15;;;;;;;3.03;0.95;;;17.50;99.90;;;;;;12478198;28;20147;-86
2022/07/15 11:53:17;;;;;;;0.88;0.40;;;17.80;99.90;;;;;;12476761;28;20037;-87
2022/07/15 11:59:19;;;;;;;2.50;0.80;;;18.70;99.90;;;;;;12471806;28;20045;-86
2022/07/15 12:05:21;;;;;;;6.03;0.60;;;19.50;99.90;;;;;;12488158;28;20421;-86
2022/07/15 12:11:23;;;;;;;1.50;0.50;;;19.60;99.90;;;;;;12474536;28;20042;-87
2022/07/15 12:17:25;;;;;;;4.68;0.65;;;19.80;99.90;;;;;;12471756;28;20413;-85
2022/07/15 12:23:28;;;;;;;1.75;0.47;;;19.40;99.90;;;;;;12454591;28;20092;-85
2022/07/15 12:29:32;;;;;;;3.72;0.60;;;19.20;99.90;;;;;;12463444;28;20077;-86
2022/07/15 12:36:18;;;;;;;3.33;0.50;;;19.30;99.90;;;;;;12452337;28;20120;-86
2022/07/15 12:42:21;;;;;;;2.17;0.43;;;18.90;99.90;;;;;;12444935;28;20057;-85
2022/07/15 12:48:25;;;;;;;2.83;0.60;;;18.80;99.90;;;;;;12462518;28;20554;-86
2022/07/15 12:54:28;;;;;;;3.78;0.70;;;19.10;99.90;;;;;;12463825;28;20088;-85
2022/07/15 13:00:30;;;;;;;1.57;0.50;;;19.60;99.90;;;;;;12447389;28;20052;-87
2022/07/15 13:06:32;;;;;;;2.35;0.40;;;19.40;99.90;;;;;;12459808;28;20057;-85
2022/07/15 13:12:34;;;;;;;3.08;0.40;;;18.80;99.90;;;;;;12497882;28;20100;-84
2022/07/15 13:18:36;;;;;;;3.40;0.57;;;18.50;99.90;;;;;;12454757;28;20091;-86
2022/07/15 13:24:38;;;;;;;2.77;0.83;;;18.30;99.90;;;;;;12460767;28;20405;-87
2022/07/15 13:30:40;;;;;;;1.42;0.35;;;18.30;99.90;;;;;;12465934;28;20042;-84
2022/07/15 13:36:42;;;;;;;2.75;0.47;;;18.30;99.90;;;;;;12456149;28;20056;-86
2022/07/15 13:42:45;;;;;;;1.75;0.63;;;18.00;99.90;;;;;;12459388;28;20456;-87
2022/07/15 13:48:47;;;;;;;2.33;0.50;;;17.90;99.90;;;;;;12488393;28;20056;-86
2022/07/15 13:54:49;;;;;;;4.68;0.55;;;18.10;99.90;;;;;;12469390;28;20119;-86
2022/07/15 14:00:53;;;;;;;2.00;0.50;;;18.20;99.90;;;;;;12476070;28;20064;-86
2022/07/15 14:06:55;;;;;;;1.58;0.40;;;18.20;99.90;;;;;;12476353;28;20072;-87
2022/07/15 14:12:57;;;;;;;4.70;0.43;;;18.40;99.90;;;;;;12455087;28;20180;-87
2022/07/15 14:18:59;;;;;;;3.03;0.40;;;18.30;99.90;;;;;;12460779;28;20126;-86
2022/07/15 14:25:01;;;;;;;1.65;0.40;;;18.30;99.90;;;;;;12455150;28;20145;-86
2022/07/15 14:31:07;;;;;;;2.20;0.45;;;18.50;99.90;;;;;;12454644;28;20053;-87
2022/07/15 14:37:09;;;;;;;1.52;0.40;;;19.10;99.90;;;;;;12470325;28;20050;-87
2022/07/15 14:43:32;;;;;;;3.85;0.40;;;19.50;99.90;;;;;;12461486;28;20052;-87
2022/07/15 14:49:34;;;;;;;3.20;0.40;;;19.80;99.90;;;;;;12475917;28;20053;-87
2022/07/15 14:55:36;;;;;;;2.17;0.43;;;19.80;99.90;;;;;;12456141;28;20121;-87
2022/07/15 15:01:37;;;;;;;3.60;0.50;;;19.40;99.90;;;;;;12469241;28;20041;-87
2022/07/15 15:07:40;;;;;;;1.92;0.40;;;19.50;99.90;;;;;;12472001;28;20049;-86
2022/07/15 15:13:42;;;;;;;3.15;0.50;;;19.30;99.90;;;;;;12459878;28;20091;-86
2022/07/15 15:19:44;;;;;;;1.65;0.38;;;19.30;99.90;;;;;;12474350;28;20042;-87
2022/07/15 15:32:11;;;;;;;3.40;0.52;;;19.10;99.90;;;;;;12460025;28;20088;-86
2022/07/15 15:38:13;;;;;;;1.70;0.40;;;19.10;99.90;;;;;;12453098;28;20173;-86
2022/07/15 15:44:15;;;;;;;2.63;0.60;;;19.10;99.90;;;;;;12475675;28;20046;-86
2022/07/15 15:50:17;;;;;;;3.22;0.55;;;19.10;99.90;;;;;;12466030;28;20072;-85
2022/07/15 15:56:19;;;;;;;2.30;0.60;;;18.80;99.90;;;;;;12469194;28;20041;-86
2022/07/15 16:02:22;;;;;;;2.85;0.40;;;18.70;99.90;;;;;;12487311;28;20069;-86
2022/07/15 16:08:24;;;;;;;1.73;0.47;;;18.70;99.90;;;;;;12458666;28;20080;-85
2022/07/15 16:14:27;;;;;;;3.38;0.50;;;18.80;99.90;;;;;;12465879;28;20065;-86
2022/07/15 16:20:28;;;;;;;4.20;0.65;;;18.60;99.90;;;;;;12464266;28;20064;-86
2022/07/15 16:26:30;;;;;;;2.55;0.40;;;18.50;99.90;;;;;;12464437;28;20140;-87
2022/07/15 16:32:32;;;;;;;2.47;0.40;;;19.10;99.90;;;;;;12452518;28;20485;-87
2022/07/15 16:38:34;;;;;;;4.38;0.50;;;19.80;99.90;;;;;;12409265;28;20181;-86
2022/07/15 16:44:36;;;;;;;1.08;0.35;;;20.10;99.90;;;;;;12400050;28;20133;-87
2022/07/15 16:50:38;;;;;;;1.30;0.40;;;20.30;99.90;;;;;;12435736;28;20045;-87
2022/07/15 16:56:39;;;;;;;4.40;0.55;;;20.50;99.90;;;;;;12446333;28;20461;-87
2022/07/15 17:02:41;;;;;;;0.85;0.35;;;20.70;99.90;;;;;;12432392;28;20058;-87
2022/07/15 17:08:43;;;;;;;1.00;0.32;;;20.80;99.90;;;;;;12425303;28;21105;-86
2022/07/15 17:14:45;;;;;;;1.73;0.60;;;21.00;99.90;;;;;;12420561;28;20533;-87
2022/07/15 17:20:47;;;;;;;2.95;0.50;;;21.20;99.90;;;;;;12453878;28;20065;-87
2022/07/15 17:26:50;;;;;;;2.53;0.60;;;21.10;99.90;;;;;;12435338;28;20053;-86
2022/07/15 17:32:51;;;;;;;1.33;0.50;;;20.60;99.90;;;;;;12427495;28;20038;-87
2022/07/15 17:39:13;;;;;;;1.05;0.30;;;20.00;99.90;;;;;;12464658;28;20149;-86
2022/07/15 17:45:15;;;;;;;4.85;0.63;;;19.60;99.90;;;;;;12454843;28;20042;-87
2022/07/15 17:51:17;;;;;;;1.42;0.40;;;19.80;99.90;;;;;;12472534;28;20128;-86
2022/07/15 17:57:19;;;;;;;2.45;0.52;;;19.60;99.90;;;;;;12472775;28;20076;-87
2022/07/15 18:03:22;;;;;;;1.77;0.55;;;19.40;99.90;;;;;;12455727;28;20049;-85
2022/07/15 18:09:24;;;;;;;2.33;0.65;;;19.30;99.90;;;;;;12468031;28;20053;-87
2022/07/15 18:15:27;;;;;;;2.35;0.47;;;19.10;99.90;;;;;;12466859;28;20054;-86
2022/07/15 18:21:29;;;;;;;4.72;0.75;;;19.20;99.90;;;;;;12470233;28;20041;-86
2022/07/15 18:27:30;;;;;;;3.20;0.40;;;19.30;99.90;;;;;;12470537;28;20099;-86
2022/07/15 18:33:32;;;;;;;3.20;0.50;;;19.20;99.90;;;;;;12462696;28;20072;-86
2022/07/15 18:39:34;;;;;;;3.35;0.45;;;19.10;99.90;;;;;;12482276;28;20050;-87
2022/07/15 18:45:36;;;;;;;1.40;0.30;;;18.90;99.90;;;;;;12492609;28;20073;-86
2022/07/15 18:51:38;;;;;;;3.00;0.40;;;18.80;99.90;;;;;;12477291;28;20121;-86
2022/07/15 18:57:39;;;;;;;3.47;0.50;;;18.60;99.90;;;;;;12464993;28;20077;-86
2022/07/15 19:03:41;;;;;;;4.72;0.65;;;18.40;99.90;;;;;;12465039;28;20073;-86
2022/07/15 19:09:43;;;;;;;3.25;0.55;;;18.20;99.90;;;;;;12491639;28;20425;-86
2022/07/15 19:15:46;;;;;;;1.27;0.40;;;18.10;99.90;;;;;;12475052;28;20526;-86
2022/07/15 19:21:48;;;;;;;4.97;0.60;;;18.00;99.90;;;;;;12467796;28;20064;-85
2022/07/15 19:27:50;;;;;;;1.77;0.43;;;17.90;99.90;;;;;;12483036;28;20222;-86
2022/07/15 19:33:53;;;;;;;2.77;0.43;;;17.80;99.90;;;;;;12456568;28;20042;-86
2022/07/15 19:40:04;;;;;;;3.47;0.60;;;17.70;99.90;;;;;;12473035;28;21014;-86
2022/07/15 19:46:06;;;;;;;2.65;0.75;;;17.50;99.90;;;;;;12451321;28;20050;-86
2022/07/15 19:52:08;;;;;;;5.20;0.75;;;17.50;99.90;;;;;;12460021;28;20164;-86
2022/07/15 19:58:10;;;;;;;3.58;0.50;;;17.30;99.90;;;;;;12473505;28;20125;-85
2022/07/15 20:04:12;;;;;;;1.20;0.50;;;17.10;99.90;;;;;;12462897;28;20136;-85
2022/07/15 20:10:14;;;;;;;2.97;0.63;;;17.10;99.90;;;;;;12460737;28;20065;-85
2022/07/15 20:16:16;;;;;;;4.43;0.63;;;17.00;99.90;;;;;;12457487;28;20137;-85
2022/07/15 20:22:18;;;;;;;4.63;0.60;;;16.90;99.90;;;;;;12464006;28;20053;-86
2022/07/15 20:28:20;;;;;;;4.07;0.70;;;16.70;99.90;;;;;;12464748;28;20133;-86
2022/07/15 20:34:22;;;;;;;2.70;0.70;;;16.60;99.90;;;;;;12462783;28;20123;-85
2022/07/15 20:40:24;;;;;;;2.33;0.77;;;16.50;99.90;;;;;;12463699;28;20041;-85
2022/07/15 20:46:29;;;;;;;1.55;0.52;;;16.20;99.90;;;;;;12481397;28;20112;-85
2022/07/15 20:52:31;;;;;;;2.55;0.80;;;16.40;99.90;;;;;;12468040;28;20038;-85
2022/07/15 20:58:33;;;;;;;3.70;0.80;;;16.30;99.90;;;;;;12456801;28;20509;-85
2022/07/15 21:04:35;;;;;;;6.05;0.70;;;16.30;99.90;;;;;;12472116;28;20080;-84
2022/07/15 21:10:39;;;;;;;1.80;0.70;;;16.30;99.90;;;;;;12470138;28;20489;-86
2022/07/15 21:16:41;;;;;;;9.23;0.90;;;16.30;99.90;;;;;;12502770;28;20029;-85
2022/07/15 21:22:43;;;;;;;1.73;0.60;;;16.30;99.90;;;;;;12482398;28;20042;-84
2022/07/15 21:28:45;;;;;;;7.50;0.75;;;16.30;99.90;;;;;;12479267;28;20049;-85
2022/07/15 21:34:46;;;;;;;2.88;0.70;;;16.40;99.90;;;;;;12460765;28;20037;-85
2022/07/15 21:40:48;;;;;;;4.43;0.77;;;16.50;99.90;;;;;;12482851;28;20174;-85
2022/07/15 21:46:50;;;;;;;4.45;0.88;;;16.40;99.90;;;;;;12467139;28;20128;-84
2022/07/15 21:52:53;;;;;;;5.07;0.85;;;16.30;99.90;;;;;;12479255;28;20128;-84
2022/07/15 21:58:54;;;;;;;2.35;0.68;;;16.40;99.90;;;;;;12463813;28;20517;-85
2022/07/15 22:04:56;;;;;;;3.35;0.70;;;16.40;99.90;;;;;;12481831;28;20503;-85
2022/07/15 22:10:58;;;;;;;3.67;0.80;;;16.50;99.90;;;;;;12467509;28;20176;-85
2022/07/15 22:17:00;;;;;;;2.20;0.70;;;16.50;99.90;;;;;;12456256;28;20053;-85
2022/07/15 22:23:02;;;;;;;2.53;0.70;;;16.50;99.90;;;;;;12467040;28;20132;-85
2022/07/15 22:29:05;;;;;;;2.67;0.77;;;16.50;99.90;;;;;;12475029;28;20057;-84
2022/07/15 22:35:07;;;;;;;3.40;1.10;;;16.50;99.90;;;;;;12468531;28;20541;-85
2022/07/15 22:41:09;;;;;;;3.00;0.80;;;16.50;99.90;;;;;;12483096;28;20125;-85
2022/07/15 22:47:11;;;;;;;2.70;0.80;;;16.50;99.90;;;;;;12452727;28;20106;-85
2022/07/15 22:53:13;;;;;;;3.20;0.80;;;16.50;99.90;;;;;;12453285;28;20049;-85
2022/07/15 22:59:15;;;;;;;3.30;0.85;;;16.50;99.90;;;;;;12466536;28;20053;-85
2022/07/15 23:05:16;;;;;;;4.43;0.70;;;16.60;99.90;;;;;;12499651;28;20132;-86
2022/07/15 23:11:18;;;;;;;3.60;0.80;;;16.60;99.90;;;;;;12500709;28;20124;-84
2022/07/15 23:17:20;;;;;;;1.08;0.47;;;16.70;99.90;;;;;;12472186;28;20099;-85
2022/07/15 23:23:22;;;;;;;2.85;0.70;;;16.70;99.90;;;;;;12466337;28;20046;-85
2022/07/15 23:29:23;;;;;;;5.38;0.63;;;16.70;99.90;;;;;;12456046;28;20046;-85
2022/07/15 23:35:27;;;;;;;3.92;0.68;;;16.40;99.90;;;;;;12455671;28;20104;-85
2022/07/15 23:41:29;;;;;;;3.57;0.80;;;16.40;99.90;;;;;;12471992;28;20083;-85
2022/07/15 23:47:31;;;;;;;3.38;1.10;;;16.20;99.90;;;;;;12469783;28;20308;-85
2022/07/15 23:53:33;;;;;;;3.58;0.90;;;16.10;99.90;;;;;;12468304;28;20045;-84
